sensor_id;sensor_type;location;lat;lon;timestamp;temperature;humidity
67870;DHT22;54673;52.262;6.830;2023-04-24T00:01:49;18.60;54.80
67870;DHT22;54673;52.262;6.830;2023-04-24T00:04:15;18.60;54.70
67870;DHT22;54673;52.262;6.830;2023-04-24T00:06:42;18.60;54.80
67870;DHT22;54673;52.262;6.830;2023-04-24T00:09:09;18.60;54.70
67870;DHT22;54673;52.262;6.830;2023-04-24T00:11:35;18.60;54.70
67870;DHT22;54673;52.262;6.830;2023-04-24T00:14:01;18.60;54.60
67870;DHT22;54673;52.262;6.830;2023-04-24T00:16:27;18.60;54.60
67870;DHT22;54673;52.262;6.830;2023-04-24T00:18:53;18.60;54.60
67870;DHT22;54673;52.262;6.830;2023-04-24T00:21:19;18.60;54.50
67870;DHT22;54673;52.262;6.830;2023-04-24T00:23:45;18.60;54.60
67870;DHT22;54673;52.262;6.830;2023-04-24T00:26:11;18.60;54.60
67870;DHT22;54673;52.262;6.830;2023-04-24T00:28:36;18.60;54.50
67870;DHT22;54673;52.262;6.830;2023-04-24T00:31:02;18.60;54.50
67870;DHT22;54673;52.262;6.830;2023-04-24T00:33:28;18.60;54.60
67870;DHT22;54673;52.262;6.830;2023-04-24T00:35:53;18.60;54.40
67870;DHT22;54673;52.262;6.830;2023-04-24T00:38:19;18.60;54.40
67870;DHT22;54673;52.262;6.830;2023-04-24T00:40:45;18.60;54.50
67870;DHT22;54673;52.262;6.830;2023-04-24T00:43:11;18.60;54.40
67870;DHT22;54673;52.262;6.830;2023-04-24T00:45:37;18.60;54.30
67870;DHT22;54673;52.262;6.830;2023-04-24T00:48:02;18.60;54.30
67870;DHT22;54673;52.262;6.830;2023-04-24T00:50:29;18.60;54.30
67870;DHT22;54673;52.262;6.830;2023-04-24T00:52:55;18.60;54.30
67870;DHT22;54673;52.262;6.830;2023-04-24T00:55:21;18.50;54.20
67870;DHT22;54673;52.262;6.830;2023-04-24T00:57:47;18.60;55.20
67870;DHT22;54673;52.262;6.830;2023-04-24T01:00:14;18.50;54.20
67870;DHT22;54673;52.262;6.830;2023-04-24T01:02:41;18.10;53.90
67870;DHT22;54673;52.262;6.830;2023-04-24T01:05:15;18.50;54.10
67870;DHT22;54673;52.262;6.830;2023-04-24T01:07:45;18.50;54.10
67870;DHT22;54673;52.262;6.830;2023-04-24T01:10:13;18.50;54.00
67870;DHT22;54673;52.262;6.830;2023-04-24T01:12:39;18.50;54.00
67870;DHT22;54673;52.262;6.830;2023-04-24T01:15:05;18.50;54.00
67870;DHT22;54673;52.262;6.830;2023-04-24T01:17:32;18.50;54.20
67870;DHT22;54673;52.262;6.830;2023-04-24T01:19:58;18.50;54.10
67870;DHT22;54673;52.262;6.830;2023-04-24T01:22:25;18.50;54.00
67870;DHT22;54673;52.262;6.830;2023-04-24T01:24:52;18.50;54.00
67870;DHT22;54673;52.262;6.830;2023-04-24T01:27:18;18.10;53.80
67870;DHT22;54673;52.262;6.830;2023-04-24T01:29:45;18.50;54.00
67870;DHT22;54673;52.262;6.830;2023-04-24T01:32:11;18.50;54.00
67870;DHT22;54673;52.262;6.830;2023-04-24T01:34:37;18.50;54.00
67870;DHT22;54673;52.262;6.830;2023-04-24T01:37:02;18.50;54.00
67870;DHT22;54673;52.262;6.830;2023-04-24T01:39:28;18.50;54.00
67870;DHT22;54673;52.262;6.830;2023-04-24T01:41:54;18.50;53.90
67870;DHT22;54673;52.262;6.830;2023-04-24T01:44:20;18.50;53.90
67870;DHT22;54673;52.262;6.830;2023-04-24T01:46:46;18.50;53.90
67870;DHT22;54673;52.262;6.830;2023-04-24T01:49:12;18.50;53.90
67870;DHT22;54673;52.262;6.830;2023-04-24T01:51:38;18.50;53.90
67870;DHT22;54673;52.262;6.830;2023-04-24T01:54:04;18.50;53.90
67870;DHT22;54673;52.262;6.830;2023-04-24T01:56:31;18.50;53.80
67870;DHT22;54673;52.262;6.830;2023-04-24T01:58:59;18.50;53.90
67870;DHT22;54673;52.262;6.830;2023-04-24T02:01:26;18.50;53.80
67870;DHT22;54673;52.262;6.830;2023-04-24T02:03:51;18.50;53.80
67870;DHT22;54673;52.262;6.830;2023-04-24T02:06:17;18.50;53.80
67870;DHT22;54673;52.262;6.830;2023-04-24T02:08:43;18.50;53.90
67870;DHT22;54673;52.262;6.830;2023-04-24T02:11:09;18.50;53.80
67870;DHT22;54673;52.262;6.830;2023-04-24T02:13:35;18.50;53.90
67870;DHT22;54673;52.262;6.830;2023-04-24T02:16:01;18.50;53.80
67870;DHT22;54673;52.262;6.830;2023-04-24T02:18:26;18.50;53.80
67870;DHT22;54673;52.262;6.830;2023-04-24T02:20:52;18.50;53.90
67870;DHT22;54673;52.262;6.830;2023-04-24T02:23:17;18.50;53.70
67870;DHT22;54673;52.262;6.830;2023-04-24T02:25:43;18.50;53.70
67870;DHT22;54673;52.262;6.830;2023-04-24T02:28:09;18.40;53.70
67870;DHT22;54673;52.262;6.830;2023-04-24T02:30:34;18.50;53.70
67870;DHT22;54673;52.262;6.830;2023-04-24T02:33:00;18.50;53.70
67870;DHT22;54673;52.262;6.830;2023-04-24T02:35:25;18.50;53.60
67870;DHT22;54673;52.262;6.830;2023-04-24T02:37:51;18.40;53.60
67870;DHT22;54673;52.262;6.830;2023-04-24T02:40:16;18.40;53.60
67870;DHT22;54673;52.262;6.830;2023-04-24T02:42:42;18.40;53.60
67870;DHT22;54673;52.262;6.830;2023-04-24T02:45:08;18.40;53.60
67870;DHT22;54673;52.262;6.830;2023-04-24T02:47:33;18.40;53.60
67870;DHT22;54673;52.262;6.830;2023-04-24T02:49:59;18.40;53.60
67870;DHT22;54673;52.262;6.830;2023-04-24T02:52:24;18.50;53.60
67870;DHT22;54673;52.262;6.830;2023-04-24T02:54:50;18.40;53.50
67870;DHT22;54673;52.262;6.830;2023-04-24T02:57:15;18.40;53.60
67870;DHT22;54673;52.262;6.830;2023-04-24T02:59:41;18.40;53.60
67870;DHT22;54673;52.262;6.830;2023-04-24T03:02:07;18.40;53.70
67870;DHT22;54673;52.262;6.830;2023-04-24T03:04:32;18.40;53.60
67870;DHT22;54673;52.262;6.830;2023-04-24T03:06:58;18.40;53.60
67870;DHT22;54673;52.262;6.830;2023-04-24T03:09:24;18.40;53.60
67870;DHT22;54673;52.262;6.830;2023-04-24T03:11:49;18.40;53.70
67870;DHT22;54673;52.262;6.830;2023-04-24T03:14:16;18.50;53.60
67870;DHT22;54673;52.262;6.830;2023-04-24T03:16:41;18.40;53.50
67870;DHT22;54673;52.262;6.830;2023-04-24T03:19:07;18.40;53.60
67870;DHT22;54673;52.262;6.830;2023-04-24T03:21:33;18.40;53.50
67870;DHT22;54673;52.262;6.830;2023-04-24T03:23:58;18.40;53.60
67870;DHT22;54673;52.262;6.830;2023-04-24T03:26:24;18.40;53.50
67870;DHT22;54673;52.262;6.830;2023-04-24T03:28:50;18.40;53.50
67870;DHT22;54673;52.262;6.830;2023-04-24T03:31:15;18.40;53.50
67870;DHT22;54673;52.262;6.830;2023-04-24T03:33:42;18.40;53.50
67870;DHT22;54673;52.262;6.830;2023-04-24T03:36:07;18.40;53.50
67870;DHT22;54673;52.262;6.830;2023-04-24T03:38:33;18.40;53.50
67870;DHT22;54673;52.262;6.830;2023-04-24T03:40:58;18.40;53.50
67870;DHT22;54673;52.262;6.830;2023-04-24T03:43:24;18.40;53.50
67870;DHT22;54673;52.262;6.830;2023-04-24T03:45:50;18.40;53.50
67870;DHT22;54673;52.262;6.830;2023-04-24T03:48:16;18.40;53.50
67870;DHT22;54673;52.262;6.830;2023-04-24T03:50:41;18.40;54.40
67870;DHT22;54673;52.262;6.830;2023-04-24T03:53:07;18.30;53.40
67870;DHT22;54673;52.262;6.830;2023-04-24T03:55:32;18.40;53.50
67870;DHT22;54673;52.262;6.830;2023-04-24T03:57:58;18.40;53.40
67870;DHT22;54673;52.262;6.830;2023-04-24T04:00:23;18.40;53.40
67870;DHT22;54673;52.262;6.830;2023-04-24T04:02:49;18.40;53.40
67870;DHT22;54673;52.262;6.830;2023-04-24T04:05:15;18.40;53.40
67870;DHT22;54673;52.262;6.830;2023-04-24T04:07:41;18.40;53.50
67870;DHT22;54673;52.262;6.830;2023-04-24T04:10:06;18.40;53.50
67870;DHT22;54673;52.262;6.830;2023-04-24T04:12:33;18.30;53.40
67870;DHT22;54673;52.262;6.830;2023-04-24T04:14:58;18.30;53.30
67870;DHT22;54673;52.262;6.830;2023-04-24T04:17:24;18.40;53.40
67870;DHT22;54673;52.262;6.830;2023-04-24T04:19:49;18.40;53.40
67870;DHT22;54673;52.262;6.830;2023-04-24T04:22:16;18.30;53.30
67870;DHT22;54673;52.262;6.830;2023-04-24T04:24:41;18.40;53.40
67870;DHT22;54673;52.262;6.830;2023-04-24T04:27:07;18.30;53.20
67870;DHT22;54673;52.262;6.830;2023-04-24T04:29:33;18.30;53.30
67870;DHT22;54673;52.262;6.830;2023-04-24T04:32:01;18.30;53.30
67870;DHT22;54673;52.262;6.830;2023-04-24T04:34:27;18.30;53.20
67870;DHT22;54673;52.262;6.830;2023-04-24T04:36:55;18.30;53.20
67870;DHT22;54673;52.262;6.830;2023-04-24T04:39:20;18.30;53.30
67870;DHT22;54673;52.262;6.830;2023-04-24T04:41:46;18.30;53.20
67870;DHT22;54673;52.262;6.830;2023-04-24T04:44:14;18.40;53.40
67870;DHT22;54673;52.262;6.830;2023-04-24T04:46:40;18.30;53.30
67870;DHT22;54673;52.262;6.830;2023-04-24T04:49:07;18.30;53.20
67870;DHT22;54673;52.262;6.830;2023-04-24T04:51:34;18.30;53.20
67870;DHT22;54673;52.262;6.830;2023-04-24T04:53:59;18.30;53.20
67870;DHT22;54673;52.262;6.830;2023-04-24T04:56:26;18.30;53.20
67870;DHT22;54673;52.262;6.830;2023-04-24T04:58:51;18.30;53.20
67870;DHT22;54673;52.262;6.830;2023-04-24T05:01:17;18.30;53.20
67870;DHT22;54673;52.262;6.830;2023-04-24T05:03:43;18.30;53.20
67870;DHT22;54673;52.262;6.830;2023-04-24T05:06:08;18.30;53.20
67870;DHT22;54673;52.262;6.830;2023-04-24T05:08:34;18.30;53.20
67870;DHT22;54673;52.262;6.830;2023-04-24T05:10:59;18.30;53.20
67870;DHT22;54673;52.262;6.830;2023-04-24T05:13:25;18.30;53.20
67870;DHT22;54673;52.262;6.830;2023-04-24T05:15:51;18.30;53.20
67870;DHT22;54673;52.262;6.830;2023-04-24T05:18:16;18.30;53.10
67870;DHT22;54673;52.262;6.830;2023-04-24T05:20:42;18.30;53.20
67870;DHT22;54673;52.262;6.830;2023-04-24T05:23:09;18.30;53.20
67870;DHT22;54673;52.262;6.830;2023-04-24T05:25:35;18.20;53.10
67870;DHT22;54673;52.262;6.830;2023-04-24T05:28:01;18.30;53.10
67870;DHT22;54673;52.262;6.830;2023-04-24T05:30:27;18.30;53.20
67870;DHT22;54673;52.262;6.830;2023-04-24T05:32:53;18.30;53.10
67870;DHT22;54673;52.262;6.830;2023-04-24T05:35:18;18.30;53.20
67870;DHT22;54673;52.262;6.830;2023-04-24T05:37:44;18.30;53.10
67870;DHT22;54673;52.262;6.830;2023-04-24T05:40:10;18.30;53.10
67870;DHT22;54673;52.262;6.830;2023-04-24T05:42:36;18.20;53.10
67870;DHT22;54673;52.262;6.830;2023-04-24T05:45:02;18.30;53.20
67870;DHT22;54673;52.262;6.830;2023-04-24T05:47:28;18.30;53.30
67870;DHT22;54673;52.262;6.830;2023-04-24T05:49:53;18.30;53.20
67870;DHT22;54673;52.262;6.830;2023-04-24T05:52:19;18.30;53.20
67870;DHT22;54673;52.262;6.830;2023-04-24T05:54:46;18.30;53.20
67870;DHT22;54673;52.262;6.830;2023-04-24T05:57:12;18.30;53.10
67870;DHT22;54673;52.262;6.830;2023-04-24T05:59:38;18.30;53.10
67870;DHT22;54673;52.262;6.830;2023-04-24T06:02:04;18.30;53.10
67870;DHT22;54673;52.262;6.830;2023-04-24T06:04:29;18.30;53.00
67870;DHT22;54673;52.262;6.830;2023-04-24T06:06:55;18.20;53.10
67870;DHT22;54673;52.262;6.830;2023-04-24T06:09:22;18.30;53.00
67870;DHT22;54673;52.262;6.830;2023-04-24T06:11:49;18.30;53.80
67870;DHT22;54673;52.262;6.830;2023-04-24T06:14:18;18.30;53.00
67870;DHT22;54673;52.262;6.830;2023-04-24T06:16:43;18.20;52.90
67870;DHT22;54673;52.262;6.830;2023-04-24T06:19:09;18.20;52.80
67870;DHT22;54673;52.262;6.830;2023-04-24T06:21:34;18.20;52.80
67870;DHT22;54673;52.262;6.830;2023-04-24T06:24:00;18.20;52.80
67870;DHT22;54673;52.262;6.830;2023-04-24T06:26:26;18.20;52.80
67870;DHT22;54673;52.262;6.830;2023-04-24T06:28:52;18.20;52.80
67870;DHT22;54673;52.262;6.830;2023-04-24T06:31:19;18.20;52.70
67870;DHT22;54673;52.262;6.830;2023-04-24T06:33:45;18.20;52.80
67870;DHT22;54673;52.262;6.830;2023-04-24T06:36:12;18.20;52.70
67870;DHT22;54673;52.262;6.830;2023-04-24T06:38:37;18.20;52.70
67870;DHT22;54673;52.262;6.830;2023-04-24T06:41:03;18.20;52.80
67870;DHT22;54673;52.262;6.830;2023-04-24T06:43:31;18.20;52.70
67870;DHT22;54673;52.262;6.830;2023-04-24T06:45:57;18.20;52.70
67870;DHT22;54673;52.262;6.830;2023-04-24T06:48:24;18.20;52.70
67870;DHT22;54673;52.262;6.830;2023-04-24T06:50:50;18.20;53.60
67870;DHT22;54673;52.262;6.830;2023-04-24T06:53:16;18.20;52.70
67870;DHT22;54673;52.262;6.830;2023-04-24T06:55:41;18.20;52.80
67870;DHT22;54673;52.262;6.830;2023-04-24T06:58:08;18.20;52.80
67870;DHT22;54673;52.262;6.830;2023-04-24T07:00:34;18.20;52.70
67870;DHT22;54673;52.262;6.830;2023-04-24T07:02:59;18.20;52.80
67870;DHT22;54673;52.262;6.830;2023-04-24T07:05:25;18.20;52.60
67870;DHT22;54673;52.262;6.830;2023-04-24T07:07:51;18.30;52.80
67870;DHT22;54673;52.262;6.830;2023-04-24T07:10:17;18.20;52.70
67870;DHT22;54673;52.262;6.830;2023-04-24T07:12:43;18.20;52.70
67870;DHT22;54673;52.262;6.830;2023-04-24T07:15:09;18.20;52.70
67870;DHT22;54673;52.262;6.830;2023-04-24T07:17:34;18.20;52.80
67870;DHT22;54673;52.262;6.830;2023-04-24T07:20:00;18.30;52.90
67870;DHT22;54673;52.262;6.830;2023-04-24T07:22:26;18.30;53.00
67870;DHT22;54673;52.262;6.830;2023-04-24T07:24:51;18.30;52.80
67870;DHT22;54673;52.262;6.830;2023-04-24T07:27:17;18.30;52.90
67870;DHT22;54673;52.262;6.830;2023-04-24T07:29:43;18.20;52.80
67870;DHT22;54673;52.262;6.830;2023-04-24T07:32:09;18.30;53.00
67870;DHT22;54673;52.262;6.830;2023-04-24T07:34:35;18.30;52.90
67870;DHT22;54673;52.262;6.830;2023-04-24T07:37:00;18.30;52.90
67870;DHT22;54673;52.262;6.830;2023-04-24T07:39:27;18.30;52.90
67870;DHT22;54673;52.262;6.830;2023-04-24T07:41:53;18.30;52.90
67870;DHT22;54673;52.262;6.830;2023-04-24T07:44:18;18.20;52.80
67870;DHT22;54673;52.262;6.830;2023-04-24T07:46:44;18.20;52.90
67870;DHT22;54673;52.262;6.830;2023-04-24T07:49:10;18.20;52.80
67870;DHT22;54673;52.262;6.830;2023-04-24T07:51:35;18.20;52.80
67870;DHT22;54673;52.262;6.830;2023-04-24T07:54:04;18.30;52.80
67870;DHT22;54673;52.262;6.830;2023-04-24T07:56:31;18.30;52.80
67870;DHT22;54673;52.262;6.830;2023-04-24T07:58:57;18.30;52.80
67870;DHT22;54673;52.262;6.830;2023-04-24T08:01:22;18.30;52.80
67870;DHT22;54673;52.262;6.830;2023-04-24T08:03:48;18.30;52.80
67870;DHT22;54673;52.262;6.830;2023-04-24T08:06:13;18.30;52.80
67870;DHT22;54673;52.262;6.830;2023-04-24T08:08:39;18.20;52.80
67870;DHT22;54673;52.262;6.830;2023-04-24T08:11:05;18.30;52.80
67870;DHT22;54673;52.262;6.830;2023-04-24T08:13:30;18.30;52.80
67870;DHT22;54673;52.262;6.830;2023-04-24T08:15:56;18.20;52.70
67870;DHT22;54673;52.262;6.830;2023-04-24T08:18:22;18.20;52.80
67870;DHT22;54673;52.262;6.830;2023-04-24T08:20:48;18.30;52.80
67870;DHT22;54673;52.262;6.830;2023-04-24T08:23:14;18.20;52.80
67870;DHT22;54673;52.262;6.830;2023-04-24T08:25:39;18.30;52.80
67870;DHT22;54673;52.262;6.830;2023-04-24T08:28:06;18.30;52.80
67870;DHT22;54673;52.262;6.830;2023-04-24T08:30:33;18.30;52.90
67870;DHT22;54673;52.262;6.830;2023-04-24T08:32:59;18.30;52.90
67870;DHT22;54673;52.262;6.830;2023-04-24T08:35:25;18.40;53.00
67870;DHT22;54673;52.262;6.830;2023-04-24T08:37:52;18.40;53.10
67870;DHT22;54673;52.262;6.830;2023-04-24T08:40:22;18.40;53.00
67870;DHT22;54673;52.262;6.830;2023-04-24T08:42:53;18.40;53.00
67870;DHT22;54673;52.262;6.830;2023-04-24T08:45:19;18.50;53.10
67870;DHT22;54673;52.262;6.830;2023-04-24T08:47:45;18.50;53.10
67870;DHT22;54673;52.262;6.830;2023-04-24T08:50:11;18.50;52.90
67870;DHT22;54673;52.262;6.830;2023-04-24T08:52:37;18.60;53.00
67870;DHT22;54673;52.262;6.830;2023-04-24T08:55:03;18.60;53.20
67870;DHT22;54673;52.262;6.830;2023-04-24T08:57:29;18.60;53.00
67870;DHT22;54673;52.262;6.830;2023-04-24T08:59:58;18.70;53.00
67870;DHT22;54673;52.262;6.830;2023-04-24T09:02:23;18.70;53.00
67870;DHT22;54673;52.262;6.830;2023-04-24T09:04:50;18.70;53.00
67870;DHT22;54673;52.262;6.830;2023-04-24T09:07:17;18.80;53.00
67870;DHT22;54673;52.262;6.830;2023-04-24T09:09:44;18.80;52.90
67870;DHT22;54673;52.262;6.830;2023-04-24T09:12:10;18.80;52.70
67870;DHT22;54673;52.262;6.830;2023-04-24T09:14:36;18.90;52.90
67870;DHT22;54673;52.262;6.830;2023-04-24T09:17:05;18.90;52.80
67870;DHT22;54673;52.262;6.830;2023-04-24T09:19:31;18.90;53.00
67870;DHT22;54673;52.262;6.830;2023-04-24T09:21:57;18.90;53.10
67870;DHT22;54673;52.262;6.830;2023-04-24T09:24:22;18.90;53.10
67870;DHT22;54673;52.262;6.830;2023-04-24T09:26:49;19.00;53.20
67870;DHT22;54673;52.262;6.830;2023-04-24T09:29:21;19.10;53.20
67870;DHT22;54673;52.262;6.830;2023-04-24T09:31:46;19.00;53.10
67870;DHT22;54673;52.262;6.830;2023-04-24T09:34:12;19.10;53.00
67870;DHT22;54673;52.262;6.830;2023-04-24T09:36:42;19.00;53.10
67870;DHT22;54673;52.262;6.830;2023-04-24T09:39:13;19.10;53.10
67870;DHT22;54673;52.262;6.830;2023-04-24T09:41:54;19.10;53.10
67870;DHT22;54673;52.262;6.830;2023-04-24T09:44:23;19.10;52.80
67870;DHT22;54673;52.262;6.830;2023-04-24T09:46:51;19.20;52.50
67870;DHT22;54673;52.262;6.830;2023-04-24T09:49:24;19.20;52.70
67870;DHT22;54673;52.262;6.830;2023-04-24T09:51:50;19.20;52.20
67870;DHT22;54673;52.262;6.830;2023-04-24T09:54:20;19.20;52.40
67870;DHT22;54673;52.262;6.830;2023-04-24T09:56:50;19.20;52.30
67870;DHT22;54673;52.262;6.830;2023-04-24T09:59:19;19.20;52.20
67870;DHT22;54673;52.262;6.830;2023-04-24T10:01:46;19.20;52.00
67870;DHT22;54673;52.262;6.830;2023-04-24T10:04:21;19.20;51.90
67870;DHT22;54673;52.262;6.830;2023-04-24T10:06:49;19.30;51.80
67870;DHT22;54673;52.262;6.830;2023-04-24T10:09:15;19.20;51.90
67870;DHT22;54673;52.262;6.830;2023-04-24T10:11:43;19.10;51.80
67870;DHT22;54673;52.262;6.830;2023-04-24T10:14:16;19.10;51.80
67870;DHT22;54673;52.262;6.830;2023-04-24T10:16:42;19.10;51.80
67870;DHT22;54673;52.262;6.830;2023-04-24T10:19:07;19.10;51.90
67870;DHT22;54673;52.262;6.830;2023-04-24T10:21:34;19.10;51.90
67870;DHT22;54673;52.262;6.830;2023-04-24T10:24:01;19.10;51.90
67870;DHT22;54673;52.262;6.830;2023-04-24T10:26:29;19.00;51.80
67870;DHT22;54673;52.262;6.830;2023-04-24T10:28:57;19.10;52.40
67870;DHT22;54673;52.262;6.830;2023-04-24T10:31:23;19.10;51.90
67870;DHT22;54673;52.262;6.830;2023-04-24T10:33:50;19.00;51.80
67870;DHT22;54673;52.262;6.830;2023-04-24T10:36:17;19.00;51.80
67870;DHT22;54673;52.262;6.830;2023-04-24T10:38:45;19.00;51.80
67870;DHT22;54673;52.262;6.830;2023-04-24T10:41:12;19.00;51.80
67870;DHT22;54673;52.262;6.830;2023-04-24T10:44:12;19.00;51.80
67870;DHT22;54673;52.262;6.830;2023-04-24T10:46:43;18.90;51.80
67870;DHT22;54673;52.262;6.830;2023-04-24T10:49:09;18.90;51.80
67870;DHT22;54673;52.262;6.830;2023-04-24T10:51:49;18.80;51.80
67870;DHT22;54673;52.262;6.830;2023-04-24T10:54:27;18.90;51.90
67870;DHT22;54673;52.262;6.830;2023-04-24T10:59:50;18.90;51.80
67870;DHT22;54673;52.262;6.830;2023-04-24T11:02:19;18.90;51.90
67870;DHT22;54673;52.262;6.830;2023-04-24T11:05:03;18.80;51.70
67870;DHT22;54673;52.262;6.830;2023-04-24T11:07:29;18.80;51.70
67870;DHT22;54673;52.262;6.830;2023-04-24T11:09:58;18.80;51.70
67870;DHT22;54673;52.262;6.830;2023-04-24T11:12:26;19.90;52.30
67870;DHT22;54673;52.262;6.830;2023-04-24T11:17:47;18.80;51.80
67870;DHT22;54673;52.262;6.830;2023-04-24T11:20:17;18.80;51.70
67870;DHT22;54673;52.262;6.830;2023-04-24T11:22:43;18.70;51.60
67870;DHT22;54673;52.262;6.830;2023-04-24T11:25:09;18.70;51.60
67870;DHT22;54673;52.262;6.830;2023-04-24T11:27:44;18.70;51.70
67870;DHT22;54673;52.262;6.830;2023-04-24T11:30:10;18.70;51.60
67870;DHT22;54673;52.262;6.830;2023-04-24T11:32:43;18.70;51.70
67870;DHT22;54673;52.262;6.830;2023-04-24T11:35:20;18.70;51.70
67870;DHT22;54673;52.262;6.830;2023-04-24T11:37:50;18.70;51.70
67870;DHT22;54673;52.262;6.830;2023-04-24T11:40:18;18.70;51.70
67870;DHT22;54673;52.262;6.830;2023-04-24T11:42:47;18.70;51.70
67870;DHT22;54673;52.262;6.830;2023-04-24T11:45:24;18.70;51.70
67870;DHT22;54673;52.262;6.830;2023-04-24T11:47:50;18.70;51.70
67870;DHT22;54673;52.262;6.830;2023-04-24T11:50:17;18.70;51.70
67870;DHT22;54673;52.262;6.830;2023-04-24T11:52:48;18.70;51.60
67870;DHT22;54673;52.262;6.830;2023-04-24T11:57:42;18.60;51.60
67870;DHT22;54673;52.262;6.830;2023-04-24T12:00:16;18.60;51.70
67870;DHT22;54673;52.262;6.830;2023-04-24T12:02:42;18.70;51.70
67870;DHT22;54673;52.262;6.830;2023-04-24T12:05:08;18.70;51.70
67870;DHT22;54673;52.262;6.830;2023-04-24T12:07:41;18.70;51.80
67870;DHT22;54673;52.262;6.830;2023-04-24T12:10:09;18.80;51.70
67870;DHT22;54673;52.262;6.830;2023-04-24T12:12:35;18.80;51.60
67870;DHT22;54673;52.262;6.830;2023-04-24T12:15:06;18.80;51.70
67870;DHT22;54673;52.262;6.830;2023-04-24T12:17:33;18.80;51.70
67870;DHT22;54673;52.262;6.830;2023-04-24T12:20:01;18.80;52.00
67870;DHT22;54673;52.262;6.830;2023-04-24T12:22:28;18.90;52.00
67870;DHT22;54673;52.262;6.830;2023-04-24T12:25:03;18.90;52.00
67870;DHT22;54673;52.262;6.830;2023-04-24T12:27:31;18.90;52.60
67870;DHT22;54673;52.262;6.830;2023-04-24T12:29:59;18.90;51.90
67870;DHT22;54673;52.262;6.830;2023-04-24T12:32:25;19.00;52.00
67870;DHT22;54673;52.262;6.830;2023-04-24T12:34:52;19.00;51.80
67870;DHT22;54673;52.262;6.830;2023-04-24T12:37:18;19.00;51.80
67870;DHT22;54673;52.262;6.830;2023-04-24T12:40:05;19.00;51.80
67870;DHT22;54673;52.262;6.830;2023-04-24T12:42:31;19.10;51.90
67870;DHT22;54673;52.262;6.830;2023-04-24T12:44:59;19.10;51.90
67870;DHT22;54673;52.262;6.830;2023-04-24T12:47:25;19.10;51.90
67870;DHT22;54673;52.262;6.830;2023-04-24T12:49:51;19.10;51.70
67870;DHT22;54673;52.262;6.830;2023-04-24T12:52:18;19.20;51.70
67870;DHT22;54673;52.262;6.830;2023-04-24T12:54:45;19.20;51.60
67870;DHT22;54673;52.262;6.830;2023-04-24T12:57:11;19.20;52.00
67870;DHT22;54673;52.262;6.830;2023-04-24T12:59:36;19.20;51.80
67870;DHT22;54673;52.262;6.830;2023-04-24T13:02:02;19.30;52.00
67870;DHT22;54673;52.262;6.830;2023-04-24T13:04:28;19.30;51.90
67870;DHT22;54673;52.262;6.830;2023-04-24T13:06:53;19.20;51.80
67870;DHT22;54673;52.262;6.830;2023-04-24T13:09:19;19.30;51.90
67870;DHT22;54673;52.262;6.830;2023-04-24T13:11:44;19.30;51.70
67870;DHT22;54673;52.262;6.830;2023-04-24T13:14:10;19.30;51.90
67870;DHT22;54673;52.262;6.830;2023-04-24T13:16:35;19.30;51.70
67870;DHT22;54673;52.262;6.830;2023-04-24T13:19:01;19.30;51.90
67870;DHT22;54673;52.262;6.830;2023-04-24T13:21:26;19.30;51.70
67870;DHT22;54673;52.262;6.830;2023-04-24T13:23:52;19.40;51.80
67870;DHT22;54673;52.262;6.830;2023-04-24T13:26:18;19.20;51.60
67870;DHT22;54673;52.262;6.830;2023-04-24T13:28:43;19.40;51.70
67870;DHT22;54673;52.262;6.830;2023-04-24T13:31:09;19.40;51.70
67870;DHT22;54673;52.262;6.830;2023-04-24T13:33:35;19.40;51.80
67870;DHT22;54673;52.262;6.830;2023-04-24T13:36:01;19.40;51.40
67870;DHT22;54673;52.262;6.830;2023-04-24T13:38:26;19.40;51.30
67870;DHT22;54673;52.262;6.830;2023-04-24T13:40:52;19.40;51.50
67870;DHT22;54673;52.262;6.830;2023-04-24T13:43:17;19.40;51.60
67870;DHT22;54673;52.262;6.830;2023-04-24T13:45:43;19.40;51.60
67870;DHT22;54673;52.262;6.830;2023-04-24T13:48:08;19.50;52.50
67870;DHT22;54673;52.262;6.830;2023-04-24T13:50:34;19.50;51.60
67870;DHT22;54673;52.262;6.830;2023-04-24T13:53:00;19.50;51.70
67870;DHT22;54673;52.262;6.830;2023-04-24T13:55:26;19.50;51.60
67870;DHT22;54673;52.262;6.830;2023-04-24T13:57:52;19.50;51.60
67870;DHT22;54673;52.262;6.830;2023-04-24T14:00:20;19.50;51.50
67870;DHT22;54673;52.262;6.830;2023-04-24T14:02:46;19.60;51.50
67870;DHT22;54673;52.262;6.830;2023-04-24T14:05:13;19.60;51.50
67870;DHT22;54673;52.262;6.830;2023-04-24T14:07:40;19.60;51.60
67870;DHT22;54673;52.262;6.830;2023-04-24T14:10:07;19.60;51.60
67870;DHT22;54673;52.262;6.830;2023-04-24T14:12:33;19.60;51.60
67870;DHT22;54673;52.262;6.830;2023-04-24T14:14:59;19.60;51.50
67870;DHT22;54673;52.262;6.830;2023-04-24T14:17:25;19.60;51.50
67870;DHT22;54673;52.262;6.830;2023-04-24T14:19:50;19.70;51.30
67870;DHT22;54673;52.262;6.830;2023-04-24T14:22:17;19.70;51.40
67870;DHT22;54673;52.262;6.830;2023-04-24T14:24:43;19.70;51.30
67870;DHT22;54673;52.262;6.830;2023-04-24T14:27:08;19.70;51.40
67870;DHT22;54673;52.262;6.830;2023-04-24T14:29:34;19.80;51.40
67870;DHT22;54673;52.262;6.830;2023-04-24T14:31:59;19.80;51.40
67870;DHT22;54673;52.262;6.830;2023-04-24T14:34:25;19.80;51.30
67870;DHT22;54673;52.262;6.830;2023-04-24T14:36:52;19.80;51.40
67870;DHT22;54673;52.262;6.830;2023-04-24T14:39:18;19.80;51.40
67870;DHT22;54673;52.262;6.830;2023-04-24T14:41:44;19.90;51.50
67870;DHT22;54673;52.262;6.830;2023-04-24T14:44:09;19.80;51.30
67870;DHT22;54673;52.262;6.830;2023-04-24T14:46:36;19.80;51.20
67870;DHT22;54673;52.262;6.830;2023-04-24T14:49:01;19.90;51.10
67870;DHT22;54673;52.262;6.830;2023-04-24T14:51:27;19.90;51.10
67870;DHT22;54673;52.262;6.830;2023-04-24T14:53:53;19.90;51.10
67870;DHT22;54673;52.262;6.830;2023-04-24T14:56:18;19.90;51.10
67870;DHT22;54673;52.262;6.830;2023-04-24T14:58:44;19.90;51.00
67870;DHT22;54673;52.262;6.830;2023-04-24T15:01:10;19.90;51.00
67870;DHT22;54673;52.262;6.830;2023-04-24T15:03:36;19.90;51.10
67870;DHT22;54673;52.262;6.830;2023-04-24T15:06:01;19.90;51.00
67870;DHT22;54673;52.262;6.830;2023-04-24T15:08:27;19.90;51.00
67870;DHT22;54673;52.262;6.830;2023-04-24T15:10:53;19.90;51.00
67870;DHT22;54673;52.262;6.830;2023-04-24T15:13:19;19.90;50.90
67870;DHT22;54673;52.262;6.830;2023-04-24T15:15:46;19.90;51.90
67870;DHT22;54673;52.262;6.830;2023-04-24T15:18:12;19.90;50.90
67870;DHT22;54673;52.262;6.830;2023-04-24T15:20:38;19.90;50.90
67870;DHT22;54673;52.262;6.830;2023-04-24T15:23:08;19.90;50.90
67870;DHT22;54673;52.262;6.830;2023-04-24T15:25:34;20.00;51.00
67870;DHT22;54673;52.262;6.830;2023-04-24T15:28:00;20.00;50.90
67870;DHT22;54673;52.262;6.830;2023-04-24T15:30:26;20.00;50.80
67870;DHT22;54673;52.262;6.830;2023-04-24T15:32:52;20.00;50.90
67870;DHT22;54673;52.262;6.830;2023-04-24T15:35:17;20.00;50.90